Terminal Aerodrome Forecast
Issued by NWS North Platte, NE

Home | Current Version | Previous Version | Text Only | Print | Product List | Glossary On
Versions: 1 2 3 4 5 6 7 8 9 10 11 12 13 14 15 16 17
139
FTUS43 KLBF 270520
TAFLBF
TAF
KLBF 270520Z 2706/2806 10008KT 6SM -SHRA BKN050 OVC100
     FM271000 05005KT 6SM -SHRA SCT025 BKN030
     FM271200 02006KT P6SM VCSH BKN015 OVC030
     FM271500 36012KT P6SM BKN015 BKN030
     FM271800 36012KT P6SM SCT025 BKN040
     FM280300 33005KT P6SM BKN250=

USA.gov is the U.S. government's official web portal to all federal, state and local government web resources and services.